Time;durP1;ratioP1;P1;durP2;ratioP2;P2;SDS_P1;SDS_P2;PMS_P1;PMS_P2;Temp;Humidity;BMP_temperature;BMP_pressure;BME280_temperature;BME280_humidity;BME280_pressure;Samples;Min_cycle;Max_cycle;Signal;HPM_P1;HPM_P2
2023/06/27 00:02:55;;;;;;;6.32;0.80;;;;;;;12.58;52.17;101778.47;4953648;28;20056;-69
2023/06/27 00:05:34;;;;;;;5.28;0.80;;;;;;;12.38;52.71;101776.50;4964154;28;20512;-69
2023/06/27 00:08:26;;;;;;;7.72;0.70;;;;;;;12.31;52.58;101780.22;4947745;28;20510;-69
2023/06/27 00:11:17;;;;;;;8.50;0.63;;;;;;;12.59;52.33;101774.91;4963045;28;20058;-69
2023/06/27 00:13:58;;;;;;;6.90;0.65;;;;;;;12.57;52.07;101776.72;4950298;28;20054;-69
2023/06/27 00:16:42;;;;;;;;;;;;;;;;;;;;;
2023/06/27 00:19:21;;;;;;;2.92;0.43;;;;;;;12.61;52.33;101788.00;4953982;28;20658;-70
2023/06/27 00:21:58;;;;;;;3.45;0.68;;;;;;;12.29;53.03;101785.53;4980158;28;20077;-71
2023/06/27 00:24:39;;;;;;;3.70;0.43;;;;;;;12.51;52.79;101779.56;4962693;28;20042;-71
2023/06/27 00:27:39;;;;;;;4.50;0.50;;;;;;;12.70;52.04;101785.94;4945724;28;20030;-71
2023/06/27 00:30:22;;;;;;;4.55;0.90;;;;;;;12.62;52.42;101781.81;4962388;28;20727;-71
2023/06/27 00:32:48;;;;;;;5.88;1.23;;;;;;;12.32;52.77;101776.72;4948283;28;20054;-71
2023/06/27 00:35:33;;;;;;;4.40;0.85;;;;;;;12.43;52.87;101781.59;4964490;28;20038;-71
2023/06/27 00:38:37;;;;;;;;;;;;;;;;;;;;;
2023/06/27 00:41:34;;;;;;;4.25;0.52;;;;;;;12.07;53.65;101779.28;4961541;28;20621;-71
2023/06/27 00:46:59;;;;;;;2.50;0.68;;;;;;;12.19;53.29;101776.25;4964641;28;20053;-69
2023/06/27 00:49:55;;;;;;;;;;;;;;;;;;;;;
2023/06/27 00:52:28;;;;;;;4.70;0.88;;;;;;;12.32;52.58;101768.00;4952556;28;20380;-69
2023/06/27 00:55:32;;;;;;;10.90;1.00;;;;;;;12.30;52.38;101760.16;4949769;28;20505;-70
2023/06/27 00:58:31;;;;;;;5.60;1.45;;;;;;;12.05;52.90;101762.75;4964577;28;20415;-70
2023/06/27 01:01:19;;;;;;;5.40;0.90;;;;;;;12.22;52.67;101765.69;4970085;28;20540;-70
2023/06/27 01:04:20;;;;;;;;;;;;;;;;;;;;;
2023/06/27 01:07:13;;;;;;;;;;;;;;;;;;;;;
2023/06/27 01:10:02;;;;;;;;;;;;;;;;;;;;;
2023/06/27 01:12:58;;;;;;;6.03;0.75;;;;;;;12.01;53.08;101763.75;4945424;28;20061;-71
2023/06/27 01:15:41;;;;;;;2.20;0.60;;;;;;;11.73;53.64;101759.34;4972463;28;20034;-70
2023/06/27 01:18:36;;;;;;;7.70;0.95;;;;;;;11.90;53.47;101763.22;4974305;28;20300;-70
2023/06/27 01:21:50;;;;;;;;;;;;;;;;;;;;;
2023/06/27 01:24:31;;;;;;;3.33;0.65;;;;;;;11.78;53.88;101754.84;4955849;28;20050;-71
2023/06/27 01:27:28;;;;;;;5.10;1.45;;;;;;;11.72;53.78;101764.63;4963101;28;20026;-70
2023/06/27 01:30:04;;;;;;;11.77;1.33;;;;;;;11.63;54.07;101763.13;4964010;28;20411;-71
2023/06/27 01:33:12;;;;;;;;;;;;;;;;;;;;;
2023/06/27 01:36:01;;;;;;;8.98;0.88;;;;;;;11.32;54.39;101753.56;4958218;28;20076;-70
2023/06/27 01:38:45;;;;;;;;;;;;;;;;;;;;;
2023/06/27 01:41:26;;;;;;;7.40;1.20;;;;;;;11.78;53.48;101754.84;4959909;28;20118;-70
2023/06/27 01:44:02;;;;;;;8.32;1.58;;;;;;;11.42;54.44;101751.56;4956017;28;20038;-70
2023/06/27 01:47:01;;;;;;;5.45;1.50;;;;;;;11.75;53.65;101756.66;4963871;28;20057;-70
2023/06/27 01:49:57;;;;;;;4.55;1.50;;;;;;;11.77;53.41;101758.34;4921927;28;20084;-70
2023/06/27 01:52:28;;;;;;;3.13;1.13;;;;;;;11.77;53.58;101753.13;4937403;28;20084;-70
2023/06/27 01:55:02;;;;;;;3.00;1.30;;;;;;;11.88;53.02;101758.88;4972599;28;20044;-69
2023/06/27 01:58:17;;;;;;;2.50;0.60;;;;;;;11.74;53.76;101758.44;4954809;28;20049;-70
2023/06/27 02:01:03;;;;;;;4.60;1.52;;;;;;;11.70;53.84;101756.81;4962891;28;20034;-71
2023/06/27 02:03:45;;;;;;;7.75;1.27;;;;;;;11.83;53.38;101765.19;4941258;28;20072;-71
2023/06/27 02:06:18;;;;;;;2.27;0.93;;;;;;;11.71;53.72;101758.53;4962240;28;20092;-71
2023/06/27 02:09:07;;;;;;;;;;;;;;;;;;;;;
2023/06/27 02:11:52;;;;;;;2.58;0.90;;;;;;;11.78;53.43;101752.22;4961799;28;20061;-71
2023/06/27 02:14:39;;;;;;;3.40;0.98;;;;;;;11.69;53.68;101762.97;4959842;28;20046;-70
2023/06/27 02:17:23;;;;;;;5.97;1.35;;;;;;;11.57;54.18;101760.69;4963879;28;20030;-71
2023/06/27 02:20:33;;;;;;;6.53;1.70;;;;;;;11.59;54.01;101758.91;4960872;28;20047;-68
2023/06/27 02:23:19;;;;;;;8.55;1.27;;;;;;;11.61;53.99;101762.31;4928837;28;20826;-68
2023/06/27 02:26:05;;;;;;;5.80;1.20;;;;;;;11.61;54.00;101750.09;4961958;28;20037;-68
2023/06/27 02:28:46;;;;;;;2.58;1.00;;;;;;;11.59;53.60;101756.28;4963156;28;20137;-70
2023/06/27 02:31:18;;;;;;;6.93;1.63;;;;;;;11.48;54.50;101747.88;4974643;28;20399;-69
2023/06/27 02:33:51;;;;;;;4.78;1.48;;;;;;;11.52;54.44;101752.97;4959613;28;20130;-69
2023/06/27 02:36:29;;;;;;;3.30;1.50;;;;;;;11.65;53.79;101737.75;4966171;28;20034;-69
2023/06/27 02:39:14;;;;;;;;;;;;;;;;;;;;;
2023/06/27 02:41:52;;;;;;;4.30;2.50;;;;;;;11.67;53.51;101733.34;4980486;28;20521;-71
2023/06/27 02:44:37;;;;;;;6.60;1.40;;;;;;;11.59;53.39;101733.56;4947615;28;20054;-68
2023/06/27 02:47:39;;;;;;;;;;;;;;;;;;;;;
2023/06/27 02:50:57;;;;;;;6.80;1.67;;;;;;;11.43;53.82;101714.84;4963071;28;20053;-67
2023/06/27 02:53:31;;;;;;;3.20;1.95;;;;;;;11.49;53.32;101723.44;4954959;28;20085;-69
2023/06/27 02:56:35;;;;;;;6.67;1.57;;;;;;;11.39;53.54;101728.91;4961324;28;20582;-69
2023/06/27 02:59:24;;;;;;;4.82;1.73;;;;;;;11.41;53.74;101726.28;4951473;28;20099;-69
2023/06/27 03:02:32;;;;;;;8.60;1.80;;;;;;;11.25;54.46;101729.34;4976037;28;20026;-70
2023/06/27 03:05:19;;;;;;;3.65;1.90;;;;;;;11.27;54.29;101731.91;4975606;28;20042;-69
2023/06/27 03:07:52;;;;;;;6.35;1.48;;;;;;;11.03;54.44;101729.09;4941644;28;20332;-76
2023/06/27 03:10:40;;;;;;;3.50;1.50;;;;;;;11.21;54.42;101730.31;4966276;28;20053;-76
2023/06/27 03:13:31;;;;;;;2.20;1.60;;;;;;;11.20;54.51;101735.63;4940062;28;20038;-69
2023/06/27 03:16:21;;;;;;;6.50;2.25;;;;;;;11.08;54.66;101735.97;4964770;28;20558;-69
2023/06/27 03:19:17;;;;;;;5.47;1.75;;;;;;;11.30;54.27;101730.97;4951164;28;20158;-72
2023/06/27 03:24:56;;;;;;;4.25;1.70;;;;;;;11.34;54.36;101738.69;4947118;28;20054;-72
2023/06/27 03:27:35;;;;;;;4.47;1.60;;;;;;;11.45;54.21;101738.38;4941517;28;20410;-70
2023/06/27 03:30:04;;;;;;;7.95;1.48;;;;;;;11.59;54.13;101748.41;4959736;28;20034;-71
2023/06/27 03:32:40;;;;;;;5.22;1.80;;;;;;;11.65;54.07;101746.47;4957736;28;21828;-72
2023/06/27 03:35:18;;;;;;;8.82;1.85;;;;;;;11.55;54.02;101741.56;4961151;28;20042;-71
2023/06/27 03:37:52;;;;;;;6.45;1.70;;;;;;;11.73;53.63;101746.25;4947275;28;20581;-72
2023/06/27 03:40:26;;;;;;;5.88;1.88;;;;;;;11.01;55.32;101756.19;4961973;28;20038;-72
2023/06/27 03:43:20;;;;;;;4.10;2.15;;;;;;;11.64;54.33;101742.16;4940022;28;20073;-72
2023/06/27 03:45:52;;;;;;;6.97;2.05;;;;;;;11.66;54.29;101750.81;4954525;28;20167;-71
2023/06/27 03:48:30;;;;;;;2.20;1.50;;;;;;;11.63;53.78;101753.50;4953276;28;20049;-72
2023/06/27 03:51:16;;;;;;;2.75;1.70;;;;;;;11.76;54.32;101755.78;4973015;28;20041;-71
2023/06/27 03:54:06;;;;;;;;;;;;;;;;;;;;;
2023/06/27 03:56:46;;;;;;;8.77;2.35;;;;;;;11.59;54.52;101754.50;4967394;28;20036;-72
2023/06/27 03:59:30;;;;;;;;;;;;;;;;;;;;;
2023/06/27 04:05:10;;;;;;;7.28;1.73;;;;;;;11.73;53.83;101751.50;4958616;28;20609;-72
2023/06/27 04:07:53;;;;;;;6.47;1.42;;;;;;;11.87;53.43;101748.47;4960756;28;20081;-74
2023/06/27 04:10:31;;;;;;;;;;;;;;;;;;;;;
2023/06/27 04:13:54;;;;;;;;;;;;;;;;;;;;;
2023/06/27 04:16:45;;;;;;;;;;;;;;;;;;;;;
2023/06/27 04:19:38;;;;;;;3.85;1.65;;;;;;;11.78;53.47;101744.38;4950508;28;20140;-73
2023/06/27 04:22:17;;;;;;;3.88;1.50;;;;;;;11.50;54.13;101743.47;4957177;28;20560;-73
2023/06/27 04:24:59;;;;;;;3.67;1.70;;;;;;;11.53;54.07;101744.25;4936827;28;20475;-71
2023/06/27 04:27:38;;;;;;;6.80;2.13;;;;;;;11.54;53.95;101743.31;4952148;28;20038;-75
2023/06/27 04:30:24;;;;;;;5.63;1.48;;;;;;;11.54;53.86;101737.22;4960671;28;20222;-72
2023/06/27 04:33:03;;;;;;;4.38;2.42;;;;;;;11.58;53.93;101742.34;4957004;28;20033;-72
2023/06/27 04:36:04;;;;;;;;;;;;;;;;;;;;;
2023/06/27 04:38:51;;;;;;;;;;;;;;;;;;;;;
2023/06/27 04:41:29;;;;;;;7.13;1.67;;;;;;;11.64;54.06;101736.91;4967457;28;20114;-73
2023/06/27 04:43:59;;;;;;;2.88;1.70;;;;;;;11.58;54.07;101736.25;4949808;28;20049;-75
2023/06/27 04:46:30;;;;;;;8.35;1.90;;;;;;;11.70;54.08;101735.00;4955144;28;20113;-71
2023/06/27 04:49:13;;;;;;;6.32;1.77;;;;;;;11.79;53.63;101738.22;4951627;28;20034;-73
2023/06/27 04:52:04;;;;;;;;;;;;;;;;;;;;;
2023/06/27 04:54:55;;;;;;;6.57;1.70;;;;;;;12.33;53.24;101736.47;4933258;28;20363;-72
2023/06/27 05:00:45;;;;;;;10.80;2.20;;;;;;;12.68;52.36;101731.78;4957409;28;20493;-71
2023/06/27 05:03:42;;;;;;;7.50;1.45;;;;;;;12.90;52.55;101738.00;4941415;28;20133;-72
2023/06/27 05:06:19;;;;;;;7.65;1.25;;;;;;;13.13;51.42;101731.06;4972955;28;20400;-72
2023/06/27 05:09:01;;;;;;;3.65;1.15;;;;;;;12.99;51.82;101736.81;4940115;28;20046;-72
2023/06/27 05:11:41;;;;;;;2.35;1.25;;;;;;;13.47;50.83;101735.91;4954966;28;20113;-73
2023/06/27 05:14:15;;;;;;;2.97;0.98;;;;;;;14.17;49.59;101739.28;4942505;28;20103;-72
2023/06/27 05:16:41;;;;;;;5.28;1.52;;;;;;;14.18;48.87;101738.34;4964673;28;20041;-72
2023/06/27 05:19:06;;;;;;;4.20;0.95;;;;;;;14.13;48.01;101735.06;4959425;28;20041;-73
2023/06/27 05:21:33;;;;;;;10.50;1.27;;;;;;;15.58;46.39;101730.41;4962148;28;20090;-72
2023/06/27 05:23:58;;;;;;;11.65;1.73;;;;;;;17.19;41.53;101726.66;4963712;28;20200;-72
2023/06/27 05:26:24;;;;;;;4.45;1.27;;;;;;;19.40;37.53;101723.34;4963046;28;20044;-72
2023/06/27 05:28:50;;;;;;;5.65;0.90;;;;;;;19.58;37.70;101726.66;4961733;28;20122;-72
2023/06/27 05:31:16;;;;;;;8.48;1.25;;;;;;;20.56;34.94;101729.03;4958375;28;20096;-73
2023/06/27 05:33:41;;;;;;;3.75;0.90;;;;;;;18.56;38.19;101734.72;4960636;28;20042;-73
2023/06/27 05:36:07;;;;;;;4.53;1.23;;;;;;;16.78;41.76;101732.38;4962008;28;20561;-70
2023/06/27 05:38:32;;;;;;;3.97;0.85;;;;;;;15.93;44.86;101727.84;4964669;28;20061;-71
2023/06/27 05:40:58;;;;;;;6.35;1.00;;;;;;;18.70;39.42;101728.63;4984543;28;20057;-71
2023/06/27 05:43:23;;;;;;;2.97;1.20;;;;;;;20.54;35.98;101726.47;4946620;28;20093;-70
2023/06/27 05:45:49;;;;;;;6.78;0.98;;;;;;;22.72;32.89;101717.63;4964216;28;20089;-71
2023/06/27 05:48:15;;;;;;;3.88;0.50;;;;;;;23.06;32.07;101720.28;4947159;28;20069;-70
2023/06/27 05:50:40;;;;;;;4.68;0.57;;;;;;;23.97;30.15;101708.41;4965395;28;20037;-69
2023/06/27 05:53:06;;;;;;;6.75;0.55;;;;;;;23.29;32.22;101713.09;4963667;28;20584;-79
2023/06/27 05:55:32;;;;;;;4.35;0.80;;;;;;;21.32;34.28;101712.97;4965356;28;20041;-68
2023/06/27 05:57:57;;;;;;;3.30;0.50;;;;;;;19.72;38.60;101712.47;4960964;28;20054;-71
2023/06/27 06:00:23;;;;;;;4.97;0.85;;;;;;;21.65;35.01;101708.84;4963987;28;20042;-71
2023/06/27 06:02:49;;;;;;;5.40;0.45;;;;;;;23.51;31.26;101714.84;4964374;28;20072;-72
2023/06/27 06:05:15;;;;;;;1.75;0.25;;;;;;;23.07;30.98;101713.94;4962897;28;20046;-72
2023/06/27 06:07:42;;;;;;;4.10;0.38;;;;;;;20.12;36.31;101721.28;4961308;28;20479;-70
2023/06/27 06:10:12;;;;;;;1.50;0.63;;;;;;;18.16;40.12;101723.88;4965885;28;20036;-70
2023/06/27 06:12:38;;;;;;;5.25;1.25;;;;;;;17.68;41.77;101724.91;4964847;28;20046;-70
2023/06/27 06:15:04;;;;;;;5.90;0.60;;;;;;;18.98;40.86;101735.72;4965984;28;20038;-70
2023/06/27 06:17:30;;;;;;;7.78;0.50;;;;;;;18.96;39.11;101728.81;4963114;28;21105;-70
2023/06/27 06:19:56;;;;;;;6.43;0.38;;;;;;;21.38;35.62;101724.13;4966353;28;20162;-71
2023/06/27 06:22:21;;;;;;;3.03;0.40;;;;;;;23.29;31.23;101724.59;4962978;28;20042;-70
2023/06/27 06:24:47;;;;;;;4.63;0.47;;;;;;;25.18;28.93;101726.47;4962047;28;20081;-70
2023/06/27 06:27:13;;;;;;;3.13;0.20;;;;;;;25.66;28.52;101723.88;4962376;28;20152;-73
2023/06/27 06:29:39;;;;;;;7.00;0.73;;;;;;;26.49;26.49;101723.34;4960244;28;20237;-71
2023/06/27 06:32:05;;;;;;;2.55;0.75;;;;;;;26.31;26.19;101728.59;4966161;28;20370;-70
2023/06/27 06:34:30;;;;;;;5.45;0.98;;;;;;;25.73;26.27;101721.47;4958802;28;20558;-70
2023/06/27 06:36:56;;;;;;;2.88;0.20;;;;;;;26.42;25.67;101727.59;4959606;28;20038;-70
2023/06/27 06:39:22;;;;;;;6.10;0.40;;;;;;;24.65;27.94;101725.69;4959469;28;20038;-70
2023/06/27 06:41:47;;;;;;;3.55;0.47;;;;;;;24.09;28.24;101723.38;4963439;28;20034;-71
2023/06/27 06:44:16;;;;;;;2.88;0.20;;;;;;;23.30;28.78;101726.31;4976545;28;20069;-71
2023/06/27 06:46:43;;;;;;;4.68;0.22;;;;;;;22.30;30.03;101727.97;4961899;28;20354;-72
2023/06/27 06:49:09;;;;;;;4.22;0.52;;;;;;;22.23;30.48;101732.06;4962320;28;20043;-71
2023/06/27 06:51:34;;;;;;;4.35;0.40;;;;;;;20.13;33.73;101736.28;4961093;28;20041;-71
2023/06/27 06:54:00;;;;;;;6.25;0.32;;;;;;;19.37;35.11;101735.94;4962371;28;20563;-71
2023/06/27 06:56:25;;;;;;;5.78;0.68;;;;;;;22.45;30.10;101734.75;4962326;28;20034;-69
2023/06/27 06:58:51;;;;;;;8.00;0.40;;;;;;;24.43;27.02;101731.19;4962905;28;20034;-69
2023/06/27 07:01:18;;;;;;;1.15;0.25;;;;;;;24.37;26.67;101726.34;4962881;28;20045;-73
2023/06/27 07:03:43;;;;;;;1.42;0.80;;;;;;;25.35;26.10;101723.13;4966475;28;20137;-74
2023/06/27 07:06:09;;;;;;;3.58;0.40;;;;;;;25.72;24.17;101724.31;4964740;28;20042;-72
2023/06/27 07:08:35;;;;;;;4.35;0.40;;;;;;;25.22;25.70;101727.88;4960192;28;20137;-71
2023/06/27 07:11:00;;;;;;;1.60;0.32;;;;;;;24.36;26.33;101730.00;4965217;28;20034;-72
2023/06/27 07:13:26;;;;;;;8.52;0.30;;;;;;;25.08;25.62;101736.28;4963591;28;20455;-70
2023/06/27 07:15:51;;;;;;;3.13;0.20;;;;;;;24.38;25.69;101733.38;4960241;28;20584;-70
2023/06/27 07:18:17;;;;;;;2.75;0.20;;;;;;;22.54;28.15;101728.72;4963231;28;20030;-71
2023/06/27 07:20:42;;;;;;;2.67;0.20;;;;;;;20.16;32.00;101726.41;4963056;28;20153;-72
2023/06/27 07:23:08;;;;;;;8.48;0.35;;;;;;;19.11;34.16;101737.63;4963636;28;20070;-71
2023/06/27 07:25:36;;;;;;;4.80;0.20;;;;;;;19.06;35.05;101745.84;4960857;28;20201;-72
2023/06/27 07:28:02;;;;;;;2.28;0.43;;;;;;;18.42;35.10;101740.84;4965218;28;20049;-71
2023/06/27 07:30:27;;;;;;;2.00;0.20;;;;;;;19.85;33.13;101733.75;4957296;28;20034;-69
2023/06/27 07:32:53;;;;;;;2.63;0.22;;;;;;;20.73;31.13;101734.03;4962180;28;20163;-68
2023/06/27 07:35:18;;;;;;;3.25;0.20;;;;;;;19.84;33.21;101732.91;4959814;28;20137;-69
2023/06/27 07:37:44;;;;;;;4.50;0.25;;;;;;;21.63;30.61;101732.03;4959678;28;20048;-68
2023/06/27 07:40:10;;;;;;;3.15;0.20;;;;;;;20.82;31.72;101728.06;4962237;28;20031;-68
2023/06/27 07:42:36;;;;;;;3.97;0.32;;;;;;;20.74;31.56;101735.72;4962049;28;20046;-67
2023/06/27 07:45:05;;;;;;;1.30;0.20;;;;;;;22.18;29.79;101740.38;4976340;28;20045;-68
2023/06/27 07:47:30;;;;;;;3.72;0.65;;;;;;;23.68;27.01;101734.78;4959232;28;20124;-67
2023/06/27 07:49:58;;;;;;;0.63;0.20;;;;;;;24.58;24.91;101731.69;4960363;28;20148;-67
2023/06/27 07:52:24;;;;;;;3.50;0.20;;;;;;;25.52;23.65;101720.78;4960253;28;20049;-70
2023/06/27 07:54:51;;;;;;;4.75;0.35;;;;;;;27.03;22.78;101732.47;4976116;28;20042;-69
2023/06/27 07:57:19;;;;;;;4.25;0.30;;;;;;;25.68;23.68;101721.03;4963157;28;20467;-68
2023/06/27 07:59:45;;;;;;;7.10;0.63;;;;;;;22.01;28.05;101738.97;4975788;28;20174;-68
2023/06/27 08:02:10;;;;;;;1.90;0.20;;;;;;;20.43;29.75;101736.97;4963555;28;20310;-68
2023/06/27 08:04:35;;;;;;;4.47;0.20;;;;;;;21.55;28.09;101734.41;4938183;28;20043;-68
2023/06/27 08:07:01;;;;;;;3.20;0.20;;;;;;;23.26;26.37;101724.00;4979667;28;20743;-69
2023/06/27 08:09:29;;;;;;;2.67;0.10;;;;;;;22.83;27.27;101730.94;4959912;28;20524;-69
2023/06/27 08:11:56;;;;;;;4.00;0.30;;;;;;;25.00;23.96;101727.13;4964430;28;20073;-69
2023/06/27 08:14:22;;;;;;;3.67;0.65;;;;;;;26.12;21.93;101726.00;4958476;28;20054;-69
2023/06/27 08:16:50;;;;;;;1.38;0.10;;;;;;;26.32;22.34;101724.13;4978826;28;20061;-69
2023/06/27 08:19:16;;;;;;;5.28;0.30;;;;;;;25.66;23.40;101725.69;4964268;28;20041;-68
2023/06/27 08:21:41;;;;;;;2.80;0.40;;;;;;;23.56;25.68;101732.16;4963487;28;20034;-68
2023/06/27 08:24:09;;;;;;;3.38;0.40;;;;;;;25.21;23.68;101727.00;4960697;28;20153;-68
2023/06/27 08:26:36;;;;;;;3.05;0.32;;;;;;;23.23;26.09;101740.22;4973070;28;20026;-67
2023/06/27 08:29:02;;;;;;;3.70;0.45;;;;;;;22.94;26.00;101732.75;4941134;28;20309;-69
2023/06/27 08:31:27;;;;;;;3.33;0.50;;;;;;;24.60;23.72;101738.59;4963270;28;20046;-69
2023/06/27 08:33:52;;;;;;;2.35;0.32;;;;;;;25.13;24.04;101731.34;4938868;28;20086;-68
2023/06/27 08:36:19;;;;;;;3.95;0.28;;;;;;;25.92;22.49;101725.13;4941749;28;20475;-69
2023/06/27 08:38:45;;;;;;;1.23;0.15;;;;;;;26.12;22.51;101726.00;4957225;28;20133;-69
2023/06/27 08:41:14;;;;;;;4.03;0.20;;;;;;;22.95;26.08;101740.63;4961670;28;20040;-70
2023/06/27 08:43:40;;;;;;;4.90;0.10;;;;;;;22.30;26.93;101736.78;4948439;28;20042;-69
2023/06/27 08:46:08;;;;;;;1.15;0.20;;;;;;;21.57;28.39;101737.81;4957986;28;20048;-68
2023/06/27 08:48:36;;;;;;;7.43;0.30;;;;;;;23.58;26.00;101732.06;4973950;28;20158;-69
2023/06/27 08:51:03;;;;;;;1.48;0.20;;;;;;;24.18;25.00;101727.91;4962352;28;20382;-69
2023/06/27 08:53:30;;;;;;;4.80;0.47;;;;;;;23.54;26.08;101738.59;4950021;28;20039;-69
2023/06/27 08:56:07;;;;;;;2.63;0.50;;;;;;;21.48;28.84;101734.00;4960387;28;20087;-69
2023/06/27 08:59:03;;;;;;;1.05;0.10;;;;;;;22.65;27.48;101737.66;4949038;28;20215;-69
2023/06/27 09:01:34;;;;;;;2.03;0.20;;;;;;;22.86;27.59;101728.03;4951027;28;20059;-68
2023/06/27 09:04:03;;;;;;;0.93;0.10;;;;;;;23.95;26.42;101723.69;4959109;28;20034;-68
2023/06/27 09:06:28;;;;;;;2.15;0.20;;;;;;;22.71;27.12;101715.91;4955672;28;20495;-68
2023/06/27 09:08:56;;;;;;;4.85;0.85;;;;;;;21.84;27.65;101724.25;4961003;28;20035;-68
2023/06/27 09:11:24;;;;;;;2.78;0.20;;;;;;;21.09;28.94;101732.41;4961473;28;20693;-68
2023/06/27 09:13:52;;;;;;;0.70;0.30;;;;;;;20.57;30.40;101733.38;4981212;28;21015;-68
2023/06/27 09:16:20;;;;;;;3.47;0.20;;;;;;;21.18;29.20;101723.78;4958462;28;20038;-67
2023/06/27 09:18:46;;;;;;;5.80;0.10;;;;;;;21.45;28.54;101720.06;4954543;28;20289;-68
2023/06/27 09:21:12;;;;;;;3.38;0.10;;;;;;;22.71;26.72;101729.25;4964133;28;20586;-68
2023/06/27 09:23:39;;;;;;;3.08;0.15;;;;;;;24.19;24.90;101718.06;4960060;28;20050;-68
2023/06/27 09:26:09;;;;;;;5.43;0.40;;;;;;;23.27;26.75;101721.22;4962436;28;20454;-68
2023/06/27 09:28:54;;;;;;;3.28;0.20;;;;;;;21.84;27.66;101718.09;4959726;28;20042;-68
2023/06/27 09:31:22;;;;;;;2.75;0.20;;;;;;;23.33;26.50;101715.38;4961903;28;20121;-68
2023/06/27 09:33:48;;;;;;;1.88;0.10;;;;;;;22.47;25.43;101711.53;4959944;28;20446;-68
2023/06/27 09:36:36;;;;;;;1.85;0.20;;;;;;;22.62;26.41;101722.78;4964444;28;20116;-68
2023/06/27 09:39:06;;;;;;;1.23;0.10;;;;;;;23.50;25.76;101716.69;4943217;28;20043;-67
2023/06/27 09:41:44;;;;;;;1.13;0.20;;;;;;;24.11;24.34;101710.72;4975860;28;20042;-68
2023/06/27 09:44:27;;;;;;;1.75;0.40;;;;;;;24.13;24.08;101713.28;4983070;28;20045;-68
2023/06/27 09:46:52;;;;;;;5.10;0.10;;;;;;;23.35;25.04;101718.78;4966599;28;20043;-68
2023/06/27 09:49:20;;;;;;;4.53;0.20;;;;;;;23.44;25.32;101722.53;4962320;28;20074;-68
2023/06/27 09:51:53;;;;;;;1.95;0.10;;;;;;;23.07;23.88;101720.13;4965300;28;20053;-67
2023/06/27 09:54:22;;;;;;;1.15;0.10;;;;;;;23.94;24.50;101711.31;4962424;28;20042;-68
2023/06/27 09:56:52;;;;;;;3.97;0.20;;;;;;;23.93;24.31;101705.13;4963742;28;20736;-67
2023/06/27 09:59:20;;;;;;;2.78;0.20;;;;;;;22.88;25.97;101726.09;4962244;28;20100;-67
2023/06/27 10:01:47;;;;;;;1.75;0.20;;;;;;;23.36;25.13;101722.28;4980000;28;20447;-67
2023/06/27 10:04:12;;;;;;;2.60;0.10;;;;;;;22.94;26.03;101733.63;4970548;28;20042;-68
2023/06/27 10:06:41;;;;;;;1.30;0.20;;;;;;;23.77;26.07;101724.22;4962686;28;20121;-69
2023/06/27 10:09:07;;;;;;;1.55;0.20;;;;;;;23.39;26.81;101724.72;4956354;28;20149;-69
2023/06/27 10:11:35;;;;;;;3.13;0.10;;;;;;;22.91;26.88;101722.34;4976162;28;20046;-69
2023/06/27 10:14:01;;;;;;;2.08;0.10;;;;;;;23.30;25.46;101726.31;4964453;28;20443;-68
2023/06/27 10:16:30;;;;;;;2.47;0.20;;;;;;;23.80;25.34;101726.63;4975369;28;20045;-67
2023/06/27 10:18:56;;;;;;;3.30;0.15;;;;;;;22.66;27.62;101731.41;4964820;28;20062;-68
2023/06/27 10:21:24;;;;;;;10.13;1.48;;;;;;;22.41;28.00;101725.31;4963107;28;20125;-68
2023/06/27 10:23:52;;;;;;;1.67;0.10;;;;;;;23.58;27.43;101718.72;4962638;28;20049;-67
2023/06/27 10:26:19;;;;;;;3.13;0.28;;;;;;;23.06;26.50;101726.44;4964216;28;20057;-68
2023/06/27 10:29:17;;;;;;;2.47;0.13;;;;;;;21.96;28.63;101730.50;4961884;28;20038;-68
2023/06/27 10:31:49;;;;;;;5.88;0.75;;;;;;;23.12;27.51;101733.97;4978415;28;20056;-68
2023/06/27 10:34:18;;;;;;;6.05;0.17;;;;;;;23.22;26.65;101718.06;4961098;28;20065;-68
2023/06/27 10:36:58;;;;;;;3.63;0.40;;;;;;;23.44;26.99;101719.84;4962055;28;20030;-70
2023/06/27 10:39:57;;;;;;;3.03;0.30;;;;;;;23.73;26.68;101720.09;4959470;28;20552;-69
2023/06/27 10:42:24;;;;;;;4.50;0.28;;;;;;;21.93;29.18;101734.22;4948504;28;20043;-68
2023/06/27 10:44:56;;;;;;;4.60;0.47;;;;;;;22.24;29.90;101728.41;4974432;28;20896;-69
2023/06/27 10:47:22;;;;;;;2.97;0.60;;;;;;;21.57;30.39;101721.84;4959617;28;20039;-69
2023/06/27 10:49:49;;;;;;;5.38;0.30;;;;;;;21.99;29.07;101722.25;4958383;28;20495;-68
2023/06/27 10:52:27;;;;;;;3.17;0.70;;;;;;;21.77;28.56;101710.56;4960043;28;20042;-67
2023/06/27 10:55:15;;;;;;;1.60;0.10;;;;;;;21.82;28.09;101720.03;4958570;28;20058;-68
2023/06/27 10:57:45;;;;;;;3.00;0.30;;;;;;;22.00;28.85;101712.47;4960590;28;20658;-69
2023/06/27 11:00:15;;;;;;;8.23;0.68;;;;;;;22.99;27.55;101720.75;4961816;28;20038;-69
2023/06/27 11:02:42;;;;;;;4.70;0.40;;;;;;;22.76;27.85;101716.38;4960936;28;20042;-69
2023/06/27 11:05:16;;;;;;;1.25;0.15;;;;;;;23.79;26.68;101710.75;4963905;28;20034;-69
2023/06/27 11:07:57;;;;;;;3.35;0.30;;;;;;;23.04;28.24;101724.88;4962097;28;20039;-69
2023/06/27 11:10:30;;;;;;;2.58;0.20;;;;;;;20.95;30.53;101722.72;4964013;28;20045;-68
2023/06/27 11:13:15;;;;;;;3.13;0.22;;;;;;;20.87;30.64;101725.94;4961003;28;20066;-68
2023/06/27 11:15:45;;;;;;;3.63;0.25;;;;;;;21.39;30.39;101723.16;4960613;28;20030;-68
2023/06/27 11:18:18;;;;;;;3.83;0.30;;;;;;;20.90;31.67;101728.38;4970993;28;20159;-68
2023/06/27 11:20:45;;;;;;;2.03;0.38;;;;;;;21.08;31.64;101736.00;4963721;28;20121;-68
2023/06/27 11:23:17;;;;;;;1.38;0.10;;;;;;;21.77;29.75;101721.22;4964437;28;20106;-69
2023/06/27 11:25:46;;;;;;;2.28;0.30;;;;;;;22.23;29.00;101730.25;4960630;28;20306;-67
2023/06/27 11:28:17;;;;;;;3.70;0.25;;;;;;;22.42;28.94;101740.31;4964500;28;20092;-68
2023/06/27 11:30:44;;;;;;;2.10;0.77;;;;;;;20.71;31.71;101738.59;4942242;28;20034;-68
2023/06/27 11:33:11;;;;;;;1.90;0.30;;;;;;;21.70;30.67;101727.13;4961915;28;20284;-68
2023/06/27 11:35:45;;;;;;;2.78;0.40;;;;;;;22.26;29.31;101730.00;4970702;28;20278;-68
2023/06/27 11:38:11;;;;;;;4.90;0.70;;;;;;;21.99;29.04;101732.91;4961919;28;20367;-68
2023/06/27 11:40:46;;;;;;;4.28;0.20;;;;;;;22.10;28.88;101740.97;4959500;28;20550;-68
2023/06/27 11:43:14;;;;;;;2.42;0.20;;;;;;;20.49;30.80;101750.69;4963692;28;20565;-68
2023/06/27 11:45:50;;;;;;;13.25;0.38;;;;;;;19.87;31.32;101734.50;4955426;28;20042;-68
2023/06/27 11:48:16;;;;;;;1.13;0.20;;;;;;;20.99;30.72;101739.31;4957919;28;20644;-68
2023/06/27 11:50:57;;;;;;;1.55;0.10;;;;;;;19.77;31.73;101757.28;4955610;28;20126;-69
2023/06/27 11:53:27;;;;;;;5.53;0.20;;;;;;;20.57;30.57;101741.34;4960231;28;20056;-69
2023/06/27 11:55:54;;;;;;;2.17;0.40;;;;;;;20.65;30.49;101753.13;4953480;28;20109;-68
2023/06/27 11:58:36;;;;;;;5.88;0.20;;;;;;;20.26;31.36;101760.22;4980420;28;20098;-68
2023/06/27 12:01:11;;;;;;;6.75;0.30;;;;;;;19.32;32.31;101751.31;4957670;28;20035;-69
2023/06/27 12:03:39;;;;;;;3.97;0.43;;;;;;;19.78;33.05;101766.94;4960956;28;20041;-68
2023/06/27 12:06:05;;;;;;;3.38;0.70;;;;;;;20.46;31.89;101750.91;4977227;28;20064;-68
2023/06/27 12:08:32;;;;;;;5.07;0.30;;;;;;;20.44;31.54;101742.19;4960738;28;20046;-68
2023/06/27 12:11:03;;;;;;;3.83;0.20;;;;;;;20.53;31.27;101746.88;4957756;28;20042;-68
2023/06/27 12:13:42;;;;;;;1.03;0.20;;;;;;;20.73;31.63;101752.63;4953238;28;20053;-69
2023/06/27 12:16:27;;;;;;;3.33;0.70;;;;;;;21.32;30.58;101742.22;4965594;28;20038;-68
2023/06/27 12:19:07;;;;;;;4.35;0.30;;;;;;;21.56;29.92;101741.44;4961681;28;20450;-68
2023/06/27 12:21:33;;;;;;;5.63;0.30;;;;;;;22.13;28.07;101740.72;4959907;28;20590;-68
2023/06/27 12:24:01;;;;;;;3.28;0.25;;;;;;;22.38;27.37;101741.50;4959586;28;20048;-69
2023/06/27 12:26:27;;;;;;;7.88;0.30;;;;;;;22.74;28.14;101744.97;4941454;28;20053;-69
2023/06/27 12:29:01;;;;;;;4.00;0.30;;;;;;;22.42;28.56;101750.97;4959896;28;20051;-68
2023/06/27 12:31:32;;;;;;;3.85;0.57;;;;;;;22.16;27.90;101756.47;4959765;28;20494;-68
2023/06/27 12:33:59;;;;;;;3.45;0.40;;;;;;;23.03;26.85;101749.81;4974302;28;20746;-69
2023/06/27 12:36:27;;;;;;;4.55;0.30;;;;;;;24.16;26.42;101748.56;4961887;28;20037;-69
2023/06/27 12:38:56;;;;;;;1.67;0.10;;;;;;;22.78;26.69;101752.63;4973841;28;20062;-67
2023/06/27 12:41:25;;;;;;;3.03;0.20;;;;;;;21.67;27.78;101756.63;4960523;28;20045;-67
2023/06/27 12:43:50;;;;;;;2.03;0.35;;;;;;;22.05;27.88;101748.44;4957474;28;20063;-70